Tiempo atmosférico en la estación meteorológica de Tresviso, Cantabria (912 m.)



Fecha
DESCASC
Temp. máxima en grados centígrados (hora)
DESCASC
Temp. mínima en grados centígrados (hora)
DESCASC
Temp. media en grados centígrados
DESCASC
Racha de viento máxima en m/sg (hora)
DESCASC
Velocidad máxima media en intervalos de 10 minutos(hora)
DESCASC
Precipitaciones diarias en mm
DESCASC
Precipitaciones de 00:00 a 06:00 en mm
DESCASC
Precipitaciones de 06:00 a 12:00 en mm
DESCASC
Precipitaciones de 12:00 a 18:00 en mm
DESCASC
Precipitaciones de 18:00 a 24:00 en mm
DESCASC
06-12-2018 11.2 (11:40) 5.4 (23:59) 8.3 2.78 (13:20) 1.67 (20:30) 0 0 0 0 0
05-12-2018 15.8 (15:10) 9.3 (08:30) 12.6 11.11 (15:30) 7.22 (15:30) 0 0 0 0 0
04-12-2018 16.3 (16:10) 10.2 (03:00) 13.2 3.61 (22:20) 2.22 (09:50) 0 0 0 0 0
03-12-2018 13.5 (14:20) 10.6 (00:00) 12.1 11.39 (13:50) 6.94 (13:50) 5.2 0 2.6 2.4 0.2
02-12-2018 13.7 (15:40) 9.5 (00:00) 11.6 4.44 (06:50) 3.06 (09:50) 0 0 0 0 0
01-12-2018 11.9 (15:50) 5 (00:00) 8.4 8.33 (12:20) 6.39 (12:20) 0.6 0.2 0.4 0 0
30-11-2018 9.6 (15:30) 4.9 (00:00) 7.3 12.78 (12:50) 8.33 (13:30) 0 0 0 0 0
29-11-2018 18.2 (02:20) 7 (00:00) 12.6 22.5 (02:30) 15.56 (02:10) 0.6 0 0 0.6 0
28-11-2018 16.5 (14:30) 8.5 (00:00) 12.5 5.83 (23:10) 3.61 (21:20) 0 0 0 0 0
27-11-2018 10.3 (15:00) 4.2 (00:00) 7.3 6.39 (00:30) 5 (00:40) 0 0 0 0 0
26-11-2018 5.3 (19:10) 1.7 (02:30) 3.5 19.17 (14:50) 11.11 (14:50) 14.6 9.8 2.2 2.6 0
25-11-2018 8.3 (13:40) 2.9 (00:00) 5.6 11.94 (05:30) 8.06 (05:20) 1.4 1.4 0 0 0
24-11-2018 11.5 (15:20) 4.4 (00:00) 8 16.67 (20:00) 7.78 (16:50) 0 0 0 0 0
23-11-2018 11 (14:10) 4.2 (00:00) 7.6 9.72 (00:20) 3.33 (00:30) 0 0 0 0 0
22-11-2018 11.7 (14:40) 4.7 (00:00) 8.2 20.83 (14:00) 11.94 (14:00) 0 0 0 0 0
21-11-2018 9.2 (15:00) 1.6 (00:00) 5.4 15.83 (21:10) 8.33 (21:10) 0 0 0 0 0
20-11-2018 5.3 (00:00) 1.3 (00:00) 3.3 6.67 (10:00) 3.89 (02:30) 7.4 4 3.4 0 0
19-11-2018 12.2 (13:10) 5.3 (00:00) 8.8 11.94 (00:50) 6.11 (01:00) 9.6 0 0 0 9.6
18-11-2018 13.1 (13:40) 7.5 (00:00) 10.3 13.61 (22:30) 7.78 (22:30) 4.6 0 0 1.4 3.2
17-11-2018 15.6 (14:40) 9.6 (00:00) 12.6 5.56 (06:10) 3.61 (05:20) 0 0 0 0 0
16-11-2018 16.7 (15:40) 10.2 (00:00) 13.5 6.67 (19:20) 3.33 (19:20) 0 0 0 0 0
15-11-2018 15.3 (13:30) 10.3 (00:00) 12.8 4.72 (00:10) 3.33 (04:00) 0 0 0 0 0
14-11-2018 18.8 (16:00) 10.7 (00:00) 14.7 6.67 (12:20) 3.33 (18:20) 0 0 0 0 0
13-11-2018 11.6 (14:00) 4.8 (00:00) 8.2 4.17 (10:10) 2.78 (23:50) 0 0 0 0 0
12-11-2018 7.9 (15:50) 5.6 (00:00) 6.8 3.89 (13:40) 2.78 (13:50) 4.4 3.4 1 0 0
11-11-2018 14.9 (12:10) 7 (00:00) 10.9 16.11 (05:40) 9.17 (05:50) 19.2 0 0 12.8 6.4
10-11-2018 14.5 (00:30) 8.4 (00:00) 11.4 12.78 (01:00) 6.94 (01:00) 1.4 0.2 1 0.2 0

Gráficas

Temp. máximas Temp. mínimas Temp. medias Precipitaciones Rachas de viento máximas Velocidades máximas media en intervalos de 10 minutos

Datos horarios

Fecha y hora oficial Temperatura (ºC) Velocidad del viento (km/h) Dirección del viento Racha (km/h) Dirección de racha Precipitación (mm) Presión (hPa) Tendencia (hPa) Humedad (%)
2018-12-09 23:00:00 5.3 4 Noroeste 9 Noroeste 0 -- -- 84
2018-12-09 22:00:00 5.6 3 Noroeste 6 Oeste 0 -- -- 86
2018-12-09 21:00:00 5.8 0 Calma 3 Este 0 -- -- 90
2018-12-09 20:00:00 6.1 4 Noroeste 8 Oeste 0 -- -- 89
2018-12-09 19:00:00 6 0 Calma 4 Sudeste 0 -- -- 94
2018-12-09 18:00:00 6.5 0 Calma 5 Nordeste 0 -- -- 93
2018-12-09 17:00:00 7.1 3 Este 9 Sudoeste 0 -- -- 87
2018-12-09 16:00:00 7 2 Sudoeste 13 Oeste 0 -- -- 90
2018-12-09 15:00:00 7.2 0 Calma 9 Sudoeste 0 -- -- 90
2018-12-09 14:00:00 6.7 0 Calma 9 Oeste 0 -- -- 89
2018-12-09 13:00:00 7.2 2 Sudoeste 24 Oeste 0 -- -- 84
2018-12-09 12:00:00 7.1 3 Oeste 20 Sudoeste 0 -- -- 80
2018-12-09 11:00:00 12.6 9 Oeste 33 Noroeste 0 -- -- 22
2018-12-09 10:00:00 12.1 14 Noroeste 38 Oeste 0 -- -- 19
2018-12-09 09:00:00 10 14 Noroeste 29 Noroeste 0 -- -- 30
2018-12-09 08:00:00 10.8 2 Noroeste 35 Noroeste 0 -- -- 33
2018-12-09 07:00:00 11.6 22 Noroeste 33 Oeste 0 -- -- 30
2018-12-09 06:00:00 11.3 22 Noroeste 39 Noroeste 0 -- -- 41
2018-12-09 05:00:00 12.4 18 Noroeste 38 Noroeste 0 -- -- 31
2018-12-09 04:00:00 13.7 24 Noroeste 39 Noroeste 0 -- -- 21
2018-12-09 03:00:00 13 22 Noroeste 39 Noroeste 0 -- -- 33
2018-12-09 02:00:00 12.8 21 Noroeste 39 Oeste 0 -- -- 51
2018-12-09 01:00:00 13.1 25 Noroeste 38 Noroeste 0 -- -- 61
2018-12-09 00:00:00 12.7 24 Noroeste 41 Noroeste 0 -- -- 73
2018-12-08 23:00:00 13 17 Noroeste 44 Oeste 0 -- -- 71
2018-12-08 22:00:00 13.8 17 Noroeste 30 Noroeste 0 -- -- 66
2018-12-08 21:00:00 13.7 20 Noroeste 33 Noroeste 0 -- -- 60
2018-12-08 20:00:00 13.7 22 Oeste 34 Oeste 0 -- -- 59
2018-12-08 19:00:00 13.5 15 Oeste 31 Noroeste 0 -- -- 51
2018-12-08 18:00:00 13.2 16 Noroeste 41 Oeste 0 -- -- 40
2018-12-08 17:00:00 13.4 20 Noroeste 34 Noroeste 0 -- -- 45
2018-12-08 16:00:00 12.5 3 Sudeste 10 Este 0 -- -- 45
2018-12-08 15:00:00 13.5 9 Noroeste 35 Oeste 0 -- -- 42
2018-12-08 14:00:00 12.3 10 Oeste 29 Noroeste 0 -- -- 47
2018-12-08 13:00:00 9.4 3 Sur 8 Este 0 -- -- 60
2018-12-08 12:00:00 8.6 2 Nordeste 6 Sudeste 0 -- -- 59
2018-12-08 11:00:00 6.4 3 Este 9 Este 0 -- -- 72
2018-12-08 10:00:00 4 4 Nordeste 13 Nordeste 0 -- -- 81
2018-12-08 09:00:00 5.4 8 Noroeste 36 Noroeste 0 -- -- 60
2018-12-08 08:00:00 5 14 Oeste 31 Sudoeste 0 -- -- 68
2018-12-08 07:00:00 4 4 Noroeste 9 Noroeste 0 -- -- 77
2018-12-08 06:00:00 3.8 4 Este 26 Oeste 0 -- -- 84
2018-12-08 05:00:00 4.8 7 Sudoeste 30 Oeste 0 -- -- 81
2018-12-08 04:00:00 4.4 7 Noroeste 13 Oeste 0 -- -- 84
2018-12-08 03:00:00 4.9 7 Oeste 27 Noroeste 0 -- -- 82
2018-12-08 02:00:00 5.2 13 Noroeste 24 Noroeste 0 -- -- 81
2018-12-08 01:00:00 5.6 18 Noroeste 30 Oeste 0 -- -- 78
2018-12-08 00:00:00 6.3 13 Oeste 27 Oeste 0 -- -- 72
2018-12-07 23:00:00 6.2 17 Oeste 37 Oeste 0 -- -- 73
2018-12-07 22:00:00 5.9 13 Oeste 41 Oeste 0 -- -- 78
2018-12-07 21:00:00 5.8 27 Oeste 49 Oeste 0.2 -- -- 80
2018-12-07 20:00:00 6.8 20 Oeste 37 Sudoeste 0.2 -- -- 90
2018-12-07 19:00:00 7.6 19 Oeste 43 Oeste 0 -- -- 89
2018-12-07 18:00:00 7.4 17 Oeste 44 Noroeste 0 -- -- 93
2018-12-07 17:00:00 8.4 17 Noroeste 33 Noroeste 0 -- -- 93
2018-12-07 16:00:00 10.7 18 Noroeste 43 Oeste 0 -- -- 81
2018-12-07 15:00:00 12.4 25 Noroeste 45 Noroeste 0 -- -- 71
2018-12-07 14:00:00 12.2 26 Noroeste 46 Noroeste 0 -- -- 70
2018-12-07 13:00:00 14.4 24 Noroeste 48 Noroeste 0 -- -- 48
2018-12-07 12:00:00 14.8 24 Oeste 43 Noroeste 0 -- -- 38
2018-12-07 11:00:00 11.3 4 Noroeste 15 Noroeste 0 -- -- 46
2018-12-07 10:00:00 8.5 3 Sudoeste 9 Sudoeste 0 -- -- 58
2018-12-07 09:00:00 8.4 0 Calma 32 Oeste 0 -- -- 52
2018-12-07 08:00:00 10.1 16 Oeste 33 Oeste 0 -- -- 47
2018-12-07 07:00:00 8.1 3 Oeste 6 Sudoeste 0 -- -- 33
2018-12-07 06:00:00 8.6 0 Calma 8 Oeste 0 -- -- 30
2018-12-07 05:00:00 7.6 0 Calma 4 Este 0 -- -- 35
2018-12-07 04:00:00 7.6 3 Sudoeste 5 Sudoeste 0 -- -- 43
2018-12-07 03:00:00 6.9 0 Calma 5 Norte 0 -- -- 52
2018-12-07 02:00:00 6.4 3 Nordeste 9 Nordeste 0 -- -- 63
2018-12-07 01:00:00 5.6 5 Norte 8 Nordeste 0 -- -- 77
2018-12-07 00:00:00 5.4 4 Nordeste 9 Norte 0 -- -- 84
2018-12-06 23:00:00 5.8 3 Nordeste 6 Nordeste 0 -- -- 86
2018-12-06 22:00:00 5.8 3 Norte 9 Norte 0 -- -- 89
2018-12-06 21:00:00 6.2 5 Nordeste 10 Norte 0 -- -- 90
2018-12-06 20:00:00 6.3 3 Norte 6 Norte 0 -- -- 88
2018-12-06 19:00:00 7 0 Calma 5 Este 0 -- -- 89
2018-12-06 18:00:00 7.5 3 Este 6 Este 0 -- -- 89
2018-12-06 17:00:00 7.9 2 Sudeste 6 Este 0 -- -- 89
2018-12-06 16:00:00 8.5 0 Calma 10 Nordeste 0 -- -- 89
2018-12-06 15:00:00 9 5 Este 9 Este 0 -- -- 88
2018-12-06 14:00:00 9.3 4 Nordeste 10 Este 0 -- -- 86
2018-12-06 13:00:00 9.5 6 Este 10 Este 0 -- -- 86
2018-12-06 12:00:00 10.1 5 Este 9 Este 0 -- -- 84
2018-12-06 11:00:00 9.3 4 Sudoeste 8 Sudoeste 0 -- -- 88
2018-12-06 10:00:00 7.3 0 Calma 5 Nordeste 0 -- -- 95
2018-12-06 09:00:00 7.4 0 Calma 4 Norte 0 -- -- 94
2018-12-06 08:00:00 7.3 0 Calma 7 Norte 0 -- -- 95
2018-12-06 07:00:00 7.5 3 Noroeste 6 Noroeste 0 -- -- 96
2018-12-06 06:00:00 7.4 0 Calma 5 Sur 0 -- -- 94
2018-12-06 05:00:00 7.7 0 Calma 5 Nordeste 0 -- -- 88
2018-12-06 04:00:00 8 3 Nordeste 5 Nordeste 0 -- -- 87
2018-12-06 03:00:00 8.9 0 Calma 8 Noroeste 0 -- -- 85
2018-12-06 02:00:00 9 0 Calma 6 Nordeste 0 -- -- 81
2018-12-06 01:00:00 9.9 0 Calma 5 Noroeste 0 -- -- 81
2018-12-06 00:00:00 10.2 0 Calma 9 Oeste 0 -- -- 76
2018-12-05 23:00:00 11 3 Norte 13 Oeste 0 -- -- 76
2018-12-05 22:00:00 12.3 8 Noroeste 22 Noroeste 0 -- -- 74
2018-12-05 21:00:00 12 5 Oeste 9 Norte 0 -- -- 69
2018-12-05 20:00:00 11.4 5 Norte 12 Noroeste 0 -- -- 67
2018-12-05 19:00:00 13.2 13 Noroeste 28 Noroeste 0 -- -- 62
2018-12-05 18:00:00 14 14 Noroeste 21 Noroeste 0 -- -- 60
2018-12-05 17:00:00 14.7 17 Oeste 30 Oeste 0 -- -- 52
2018-12-05 16:00:00 15.4 17 Oeste 40 Oeste 0 -- -- 48
2018-12-05 15:00:00 15.3 13 Oeste 28 Oeste 0 -- -- 42
2018-12-05 14:00:00 14.8 5 Nordeste 17 Noroeste 0 -- -- 59
2018-12-05 13:00:00 12.8 6 Sudoeste 16 Sudoeste 0 -- -- 70
2018-12-05 12:00:00 11.9 2 Este 12 Oeste 0 -- -- 67
2018-12-05 11:00:00 10.4 4 Sur 12 Sudoeste 0 -- -- 83
2018-12-05 10:00:00 9.8 0 Calma 4 Este 0 -- -- 67
2018-12-05 09:00:00 9.3 3 Oeste 5 Oeste 0 -- -- 55
2018-12-05 08:00:00 9.6 2 Noroeste 5 Norte 0 -- -- 53
2018-12-05 07:00:00 10.3 3 Nordeste 10 Norte 0 -- -- 49
2018-12-05 06:00:00 12 0 Calma 12 Norte 0 -- -- 41
2018-12-05 05:00:00 12.6 6 Nordeste 12 Norte 0 -- -- 41
2018-12-05 04:00:00 12.7 8 Norte 14 Norte 0 -- -- 40
2018-12-05 03:00:00 13 5 Nordeste 13 Norte 0 -- -- 42
2018-12-05 02:00:00 12.9 6 Nordeste 12 Norte 0 -- -- 44
2018-12-05 01:00:00 13 7 Nordeste 13 Nordeste 0 -- -- 46
2018-12-05 00:00:00 13 6 Nordeste 11 Norte 0 -- -- 49
2018-12-04 23:00:00 13 8 Norte 13 Nordeste 0 -- -- 51
2018-12-04 22:00:00 13.3 7 Norte 12 Norte 0 -- -- 51
2018-12-04 21:00:00 14 7 Norte 10 Norte 0 -- -- 48
2018-12-04 20:00:00 14.5 2 Sudoeste 10 Oeste 0 -- -- 47
2018-12-04 19:00:00 14.4 6 Norte 10 Norte 0 -- -- 53
2018-12-04 18:00:00 14.7 3 Sudeste 9 Norte 0 -- -- 54
2018-12-04 17:00:00 14.7 4 Nordeste 6 Norte 0 -- -- 63
2018-12-04 16:00:00 16.2 0 Calma 6 Sudoeste 0 -- -- 65
2018-12-04 15:00:00 15.4 3 Este 5 Sur 0 -- -- 65
2018-12-04 14:00:00 15.1 0 Calma 8 Sudoeste 0 -- -- 66
2018-12-04 13:00:00 14.6 4 Sur 8 Este 0 -- -- 73
2018-12-04 12:00:00 13.2 3 Este 6 Este 0 -- -- 73
2018-12-04 11:00:00 12.1 2 Oeste 9 Nordeste 0 -- -- 78
2018-12-04 10:00:00 10.7 7 Nordeste 11 Nordeste 0 -- -- 82
2018-12-04 09:00:00 10.5 3 Nordeste 5 Norte 0 -- -- 82
2018-12-04 08:00:00 10.9 2 Norte 7 Norte 0 -- -- 82
2018-12-04 07:00:00 11.1 4 Norte 6 Norte 0 -- -- 80
2018-12-04 06:00:00 10.9 2 Norte 4 Norte 0 -- -- 80
2018-12-04 05:00:00 11 3 Nordeste 9 Norte 0 -- -- 80
2018-12-04 04:00:00 10.8 0 Calma 10 Nordeste 0 -- -- 85
2018-12-04 03:00:00 10.2 6 Nordeste 13 Nordeste 0 -- -- 87
2018-12-04 02:00:00 10.7 0 Calma 8 Oeste 0 -- -- 87
2018-12-04 01:00:00 10.5 3 Nordeste 9 Nordeste 0 -- -- 88
2018-12-04 00:00:00 11.3 4 Nordeste 9 Norte 0 -- -- 87
2018-12-03 23:00:00 11.6 0 Calma 6 Nordeste 0 -- -- 86
2018-12-03 22:00:00 11.6 3 Sudeste 10 Sur 0 -- -- 87
2018-12-03 21:00:00 11.9 3 Nordeste 6 Norte 0 -- -- 89
2018-12-03 20:00:00 11.6 0 Calma 7 Norte 0 -- -- 92
2018-12-03 19:00:00 11.9 2 Sudeste 7 Sudeste 0.2 -- -- 91
2018-12-03 18:00:00 12.3 2 Este 17 Oeste 0 -- -- 87
2018-12-03 17:00:00 11.9 2 Nordeste 8 Nordeste 0.2 -- -- 90
2018-12-03 16:00:00 12.2 4 Este 32 Oeste 1 -- -- 90
2018-12-03 15:00:00 12.9 15 Oeste 41 Oeste 0.2 -- -- 84
2018-12-03 14:00:00 12.8 20 Oeste 41 Oeste 0.4 -- -- 84
2018-12-03 13:00:00 11.5 5 Nordeste 18 Oeste 0.6 -- -- 87
2018-12-03 12:00:00 11.1 3 Norte 13 Oeste 0.2 -- -- 86
2018-12-03 11:00:00 10.6 5 Nordeste 17 Oeste 2 -- -- 86
2018-12-03 10:00:00 11.4 7 Nordeste 22 Nordeste 0.4 -- -- 77
2018-12-03 09:00:00 11.6 9 Este 16 Nordeste 0 -- -- 70
2018-12-03 08:00:00 11.4 6 Este 15 Nordeste 0 -- -- 69
2018-12-03 07:00:00 11.2 8 Nordeste 15 Nordeste 0 -- -- 70
2018-12-03 06:00:00 11.5 6 Nordeste 12 Norte 0 -- -- 68
2018-12-03 05:00:00 11.8 7 Nordeste 11 Este 0 -- -- 67
2018-12-03 04:00:00 11.9 4 Este 13 Norte 0 -- -- 65
2018-12-03 03:00:00 11.8 5 Nordeste 14 Nordeste 0 -- -- 68
2018-12-03 02:00:00 11.1 7 Nordeste 15 Norte 0 -- -- 66
2018-12-03 01:00:00 11.5 2 Sur 17 Oeste 0 -- -- 67
2018-12-03 00:00:00 11.7 6 Norte 13 Oeste 0 -- -- 61
2018-12-02 23:00:00 10.9 3 Nordeste 11 Norte 0 -- -- 60
2018-12-02 22:00:00 11 3 Este 11 Nordeste 0 -- -- 57
2018-12-02 21:00:00 10.8 6 Nordeste 10 Norte 0 -- -- 59
2018-12-02 20:00:00 11.6 3 Este 8 Nordeste 0 -- -- 54
2018-12-02 19:00:00 11.5 5 Nordeste 8 Norte 0 -- -- 53
2018-12-02 18:00:00 12 3 Nordeste 9 Nordeste 0 -- -- 53
2018-12-02 17:00:00 12.2 5 Nordeste 8 Nordeste 0 -- -- 55
2018-12-02 16:00:00 13.3 3 Este 5 Nordeste 0 -- -- 55
2018-12-02 15:00:00 13.1 7 Nordeste 13 Este 0 -- -- 54
2018-12-02 14:00:00 12.8 8 Nordeste 12 Este 0 -- -- 54
2018-12-02 13:00:00 12.1 7 Nordeste 11 Este 0 -- -- 60
2018-12-02 12:00:00 11.7 6 Este 11 Nordeste 0 -- -- 63
2018-12-02 11:00:00 10.5 3 Norte 9 Nordeste 0 -- -- 73
2018-12-02 10:00:00 10 4 Nordeste 15 Nordeste 0 -- -- 73
2018-12-02 09:00:00 9.6 8 Nordeste 12 Norte 0 -- -- 77
2018-12-02 08:00:00 10.2 4 Nordeste 11 Sudeste 0 -- -- 73
2018-12-02 07:00:00 11.4 4 Nordeste 16 Noroeste 0 -- -- 67
2018-12-02 06:00:00 11.5 3 Este 12 Norte 0 -- -- 66
2018-12-02 05:00:00 11.3 4 Noroeste 13 Norte 0 -- -- 65
2018-12-02 04:00:00 11.6 6 Norte 13 Norte 0 -- -- 61
2018-12-02 03:00:00 10.6 5 Nordeste 14 Nordeste 0 -- -- 64
2018-12-02 02:00:00 10.4 4 Este 9 Nordeste 0 -- -- 64
2018-12-02 01:00:00 10.1 4 Nordeste 10 Norte 0 -- -- 67
2018-12-02 00:00:00 10.1 5 Nordeste 11 Norte 0 -- -- 67
2018-12-01 23:00:00 10.1 5 Nordeste 7 Norte 0 -- -- 71
2018-12-01 22:00:00 9.9 6 Nordeste 10 Noroeste 0 -- -- 74
2018-12-01 21:00:00 10.3 5 Nordeste 9 Este 0 -- -- 76
2018-12-01 20:00:00 10.3 3 Nordeste 11 Norte 0 -- -- 77
2018-12-01 19:00:00 10.6 8 Nordeste 12 Nordeste 0 -- -- 75
2018-12-01 18:00:00 11.1 6 Nordeste 12 Nordeste 0 -- -- 72
2018-12-01 17:00:00 11.6 3 Este 11 Nordeste 0 -- -- 70
2018-12-01 16:00:00 11.8 4 Nordeste 7 Nordeste 0 -- -- 69
2018-12-01 15:00:00 11.5 4 Nordeste 8 Sudeste 0 -- -- 70
2018-12-01 14:00:00 10.6 0 Calma 6 Nordeste 0 -- -- 75
2018-12-01 13:00:00 10.1 0 Calma 30 Oeste 0 -- -- 74
2018-12-01 12:00:00 9.3 4 Noroeste 19 Oeste 0 -- -- 80
2018-12-01 11:00:00 8.7 5 Nordeste 22 Oeste 0 -- -- 71
2018-12-01 10:00:00 8 2 Nordeste 9 Sudeste 0.2 -- -- 76
2018-12-01 09:00:00 7.3 4 Norte 6 Norte 0.2 -- -- 76
2018-12-01 08:00:00 7.1 3 Este 8 Noroeste 0 -- -- 68
2018-12-01 07:00:00 6.9 3 Oeste 9 Nordeste 0 -- -- 67
2018-12-01 06:00:00 6.7 4 Nordeste 6 Nordeste 0.2 -- -- 65
2018-12-01 05:00:00 6.5 2 Nordeste 10 Nordeste 0 -- -- 63
2018-12-01 04:00:00 6.3 7 Nordeste 12 Nordeste 0 -- -- 64
2018-12-01 03:00:00 6 7 Nordeste 10 Nordeste 0 -- -- 67
2018-12-01 02:00:00 5.7 3 Nordeste 10 Nordeste 0 -- -- 68
2018-12-01 01:00:00 5.2 7 Este 12 Nordeste 0 -- -- 72
2018-12-01 00:00:00 5 7 Nordeste 12 Nordeste 0 -- -- 73
2018-11-30 23:00:00 5.3 3 Este 9 Norte 0 -- -- 71
2018-11-30 22:00:00 5.1 4 Nordeste 6 Norte 0 -- -- 72
2018-11-30 21:00:00 5.7 3 Este 18 Oeste 0 -- -- 69
2018-11-30 20:00:00 6.4 13 Oeste 20 Noroeste 0 -- -- 67
2018-11-30 19:00:00 6.4 12 Noroeste 22 Noroeste 0 -- -- 68
2018-11-30 18:00:00 6.5 4 Nordeste 18 Noroeste 0 -- -- 63
2018-11-30 17:00:00 8 9 Oeste 27 Sudoeste 0 -- -- 57
2018-11-30 16:00:00 9.2 19 Oeste 31 Oeste 0 -- -- 55
2018-11-30 15:00:00 9 17 Noroeste 39 Oeste 0 -- -- 59
2018-11-30 14:00:00 9.3 23 Oeste 46 Oeste 0 -- -- 53
2018-11-30 13:00:00 8.8 24 Oeste 46 Oeste 0 -- -- 55
2018-11-30 12:00:00 8 19 Oeste 41 Oeste 0 -- -- 59
2018-11-30 11:00:00 8.3 22 Oeste 39 Oeste 0 -- -- 57
2018-11-30 10:00:00 7.4 14 Oeste 29 Sudoeste 0 -- -- 58
2018-11-30 09:00:00 5.8 10 Oeste 22 Oeste 0 -- -- 59
2018-11-30 08:00:00 5.6 11 Oeste 21 Noroeste 0 -- -- 58
2018-11-30 07:00:00 5.5 5 Oeste 18 Oeste 0 -- -- 64
2018-11-30 06:00:00 5.7 10 Noroeste 27 Noroeste 0 -- -- 68
2018-11-30 05:00:00 5.6 9 Noroeste 15 Oeste 0 -- -- 73
2018-11-30 04:00:00 6 10 Oeste 15 Noroeste 0 -- -- 82
2018-11-30 03:00:00 6.3 10 Oeste 17 Oeste 0 -- -- 81
2018-11-30 02:00:00 6.4 5 Oeste 18 Noroeste 0 -- -- 83
2018-11-30 01:00:00 6.9 9 Oeste 13 Oeste 0 -- -- 81
2018-11-30 00:00:00 7.1 5 Oeste 10 Oeste 0 -- -- 80
2018-11-29 23:00:00 7.8 8 Noroeste 15 Noroeste 0 -- -- 76
2018-11-29 22:00:00 8.1 11 Noroeste 17 Oeste 0 -- -- 74
2018-11-29 21:00:00 7.9 9 Noroeste 13 Noroeste 0 -- -- 76
2018-11-29 20:00:00 7.3 2 Oeste 8 Norte 0 -- -- 80
2018-11-29 19:00:00 7.6 7 Norte 10 Norte 0 -- -- 81
2018-11-29 18:00:00 7.3 2 Nordeste 12 Nordeste 0 -- -- 79
2018-11-29 17:00:00 7.3 9 Nordeste 17 Este 0 -- -- 83
2018-11-29 16:00:00 8.1 6 Nordeste 18 Este 0.6 -- -- 85
2018-11-29 15:00:00 10 8 Nordeste 15 Nordeste 0 -- -- 71
2018-11-29 14:00:00 11.2 5 Nordeste 12 Este 0 -- -- 62
2018-11-29 13:00:00 11.6 5 Nordeste 17 Nordeste 0 -- -- 59
2018-11-29 12:00:00 11 10 Nordeste 18 Este 0 -- -- 57
2018-11-29 11:00:00 11.4 6 Este 15 Nordeste 0 -- -- 45
2018-11-29 10:00:00 11.4 10 Nordeste 18 Nordeste 0 -- -- 38
2018-11-29 09:00:00 11.8 8 Este 34 Este 0 -- -- 27
2018-11-29 08:00:00 13.1 12 Nordeste 40 Este 0 -- -- 20
2018-11-29 07:00:00 15.6 9 Oeste 42 Sudoeste 0 -- -- 10
2018-11-29 06:00:00 13.9 9 Sudoeste 25 Sudoeste 0 -- -- 14
2018-11-29 05:00:00 13.1 20 Nordeste 37 Nordeste 0 -- -- 19
2018-11-29 04:00:00 17 10 Sudoeste 60 Sudoeste 0 -- -- 14
2018-11-29 03:00:00 17.6 37 Sudoeste 81 Oeste 0 -- -- 11
2018-11-29 02:00:00 18 53 Oeste 74 Sudoeste 0 -- -- 10
2018-11-29 01:00:00 12.6 10 Este 21 Nordeste 0 -- -- 29
2018-11-29 00:00:00 11.6 6 Norte 21 Nordeste 0 -- -- 33
2018-11-28 23:00:00 10.8 8 Nordeste 15 Nordeste 0 -- -- 38
2018-11-28 22:00:00 11.9 8 Este 18 Este 0 -- -- 37
2018-11-28 21:00:00 12.1 7 Nordeste 12 Este 0 -- -- 38
2018-11-28 13:00:00 -- -- -- -- -- -- -- -- --
2018-11-28 12:00:00 15.2 0 Calma 14 Este 0 -- -- 31
2018-11-28 11:00:00 12.4 10 Este 15 Nordeste 0 -- -- 28
2018-11-28 10:00:00 11.5 0 Calma 10 Nordeste 0 -- -- 35
2018-11-28 09:00:00 9.6 7 Nordeste 13 Nordeste 0 -- -- 37
2018-11-28 08:00:00 9.8 6 Nordeste 14 Nordeste 0 -- -- 44
2018-11-28 07:00:00 9.3 6 Nordeste 10 Nordeste 0 -- -- 40
2018-11-28 06:00:00 9.8 5 Nordeste 10 Este 0 -- -- 40
2018-11-28 05:00:00 9.9 3 Nordeste 9 Este 0 -- -- 42
2018-11-28 04:00:00 8.7 6 Nordeste 12 Este 0 -- -- 43
2018-11-28 03:00:00 8.5 8 Este 13 Nordeste 0 -- -- 42
2018-11-28 02:00:00 9.3 4 Nordeste 12 Nordeste 0 -- -- 37
2018-11-28 01:00:00 8.9 3 Nordeste 9 Nordeste 0 -- -- 37
2018-11-28 00:00:00 8.8 8 Este 19 Noroeste 0 -- -- 40
2018-11-27 23:00:00 8.5 2 Noroeste 8 Norte 0 -- -- 42
2018-11-27 22:00:00 8.4 4 Nordeste 13 Nordeste 0 -- -- 44
2018-11-27 21:00:00 8.3 4 Este 11 Norte 0 -- -- 46
2018-11-27 20:00:00 8.1 3 Nordeste 21 Nordeste 0 -- -- 47
2018-11-27 19:00:00 8.1 8 Este 13 Este 0 -- -- 53
2018-11-27 18:00:00 8.7 5 Nordeste 8 Este 0 -- -- 49
2018-11-27 17:00:00 9.4 5 Nordeste 10 Este 0 -- -- 48
2018-11-27 16:00:00 9.9 5 Este 8 Este 0 -- -- 51
2018-11-27 15:00:00 10.3 4 Este 9 Este 0 -- -- 50
2018-11-27 14:00:00 10 3 Este 8 Este 0 -- -- 49
2018-11-27 13:00:00 9.4 0 Calma 7 Este 0 -- -- 54
2018-11-27 12:00:00 8.9 0 Calma 5 Norte 0 -- -- 58
2018-11-27 11:00:00 8.2 3 Este 5 Este 0 -- -- 42
2018-11-27 10:00:00 7.1 0 Calma 9 Nordeste 0 -- -- 45
2018-11-27 09:00:00 5.8 5 Nordeste 10 Nordeste 0 -- -- 53
2018-11-27 08:00:00 5.5 6 Nordeste 10 Nordeste 0 -- -- 51
2018-11-27 07:00:00 5.9 3 Oeste 12 Nordeste 0 -- -- 41
2018-11-27 06:00:00 5.8 0 Calma 9 Norte 0 -- -- 40
2018-11-27 05:00:00 5.8 4 Noroeste 11 Norte 0 -- -- 43
2018-11-27 04:00:00 5 3 Nordeste 7 Nordeste 0 -- -- 52
2018-11-27 03:00:00 4.4 5 Este 8 Nordeste 0 -- -- 60
2018-11-27 02:00:00 5 4 Norte 21 Noroeste 0 -- -- 57
2018-11-27 01:00:00 5.6 14 Noroeste 23 Noroeste 0 -- -- 62
2018-11-27 00:00:00 4.4 4 Oeste 18 Oeste 0 -- -- 74
2018-11-26 23:00:00 4.9 5 Oeste 20 Oeste 0 -- -- 72
2018-11-26 22:00:00 5.2 13 Noroeste 33 Oeste 0 -- -- 74
2018-11-26 21:00:00 5.3 16 Oeste 56 Oeste 0 -- -- 75
2018-11-26 20:00:00 5.2 23 Oeste 46 Oeste 0 -- -- 76
2018-11-26 19:00:00 5.2 24 Noroeste 44 Noroeste 0 -- -- 79
2018-11-26 18:00:00 5 28 Noroeste 44 Noroeste 0.4 -- -- 84
2018-11-26 17:00:00 4.8 24 Oeste 43 Oeste 0.2 -- -- 88
2018-11-26 16:00:00 5.1 28 Oeste 50 Oeste 0.2 -- -- 86
2018-11-26 15:00:00 5.1 33 Oeste 69 Oeste 0.4 -- -- 86
2018-11-26 14:00:00 4.6 31 Oeste 55 Oeste 0.4 -- -- 90
2018-11-26 13:00:00 4.4 30 Oeste 60 Oeste 1 -- -- 88
2018-11-26 12:00:00 4.8 37 Oeste 59 Oeste 0.4 -- -- 83
2018-11-26 11:00:00 3.7 29 Noroeste 53 Oeste 0 -- -- 89
2018-11-26 10:00:00 3.5 32 Oeste 57 Oeste 0 -- -- 92
2018-11-26 09:00:00 3.1 29 Oeste 48 Oeste 0.6 -- -- 90
2018-11-26 08:00:00 2.6 23 Oeste 45 Oeste 1.2 -- -- 90
2018-11-26 07:00:00 3 19 Oeste 32 Oeste 0 -- -- 87
2018-11-26 06:00:00 2.7 24 Oeste 41 Oeste 0 -- -- 87
2018-11-26 05:00:00 2.2 17 Oeste 30 Oeste 0 -- -- 90
2018-11-26 04:00:00 2.5 15 Oeste 24 Oeste 2 -- -- 88
2018-11-26 03:00:00 1.8 17 Noroeste 25 Noroeste 5.4 -- -- 90
2018-11-26 02:00:00 2.2 16 Noroeste 23 Noroeste 2.2 -- -- 88
2018-11-26 01:00:00 3.9 6 Este 20 Sur 0.2 -- -- 81
2018-11-26 00:00:00 5 11 Nordeste 18 Nordeste 0 -- -- 68
2018-11-25 23:00:00 4.1 4 Norte 9 Norte 0 -- -- 82
2018-11-25 22:00:00 4.3 2 Sudeste 11 Norte 0 -- -- 81
2018-11-25 21:00:00 4.5 3 Noroeste 10 Nordeste 0 -- -- 78
2018-11-25 20:00:00 4.7 0 Calma 8 Norte 0 -- -- 76
2018-11-25 19:00:00 4.5 2 Sur 4 Sudoeste 0 -- -- 80
2018-11-25 18:00:00 4.6 0 Calma 4 Este 0 -- -- 78
2018-11-25 17:00:00 5.6 2 Sudeste 5 Este 0 -- -- 73
2018-11-25 16:00:00 6.5 0 Calma 8 Este 0 -- -- 63
2018-11-25 15:00:00 7.7 3 Este 7 Nordeste 0 -- -- 61
2018-11-25 14:00:00 7.6 0 Calma 12 Sudoeste 0 -- -- 63
2018-11-25 13:00:00 6.7 3 Este 13 Sudoeste 0 -- -- 63
2018-11-25 12:00:00 6.1 0 Calma 8 Sur 0 -- -- 67
2018-11-25 11:00:00 6.1 8 Sudoeste 17 Noroeste 0 -- -- 69
2018-11-25 10:00:00 4.6 10 Sur 30 Oeste 0 -- -- 76
2018-11-25 09:00:00 3.1 8 Sudoeste 25 Oeste 0 -- -- 78
2018-11-25 08:00:00 3 15 Oeste 29 Sudoeste 0 -- -- 79
2018-11-25 07:00:00 3.2 20 Oeste 36 Oeste 0 -- -- 81
2018-11-25 06:00:00 3.4 20 Oeste 43 Oeste 0.2 -- -- 87
2018-11-25 05:00:00 3.9 19 Noroeste 36 Oeste 0 -- -- 90
2018-11-25 04:00:00 4.2 18 Oeste 41 Noroeste 0.2 -- -- 92
2018-11-25 03:00:00 4.7 22 Noroeste 37 Oeste 0 -- -- 91
2018-11-25 02:00:00 5.4 18 Oeste 33 Noroeste 0.8 -- -- 91
2018-11-25 01:00:00 6.4 10 Oeste 24 Oeste 0.2 -- -- 91
2018-11-25 00:00:00 7.1 17 Noroeste 26 Norte 0 -- -- 85
2018-11-24 23:00:00 8.7 6 Nordeste 30 Oeste 0 -- -- 64
2018-11-24 22:00:00 9.8 8 Noroeste 47 Sudoeste 0 -- -- 53
2018-11-24 21:00:00 9.4 9 Sur 44 Noroeste 0 -- -- 54
2018-11-24 20:00:00 9.7 25 Noroeste 60 Oeste 0 -- -- 53
2018-11-24 19:00:00 9.7 18 Oeste 53 Sudoeste 0 -- -- 54
2018-11-24 18:00:00 9.2 15 Sur 37 Sudoeste 0 -- -- 58
2018-11-24 17:00:00 10.1 27 Sudoeste 53 Oeste 0 -- -- 53
2018-11-24 16:00:00 10.5 13 Oeste 35 Sudoeste 0 -- -- 53
2018-11-24 15:00:00 10.4 8 Este 21 Sudeste 0 -- -- 60
2018-11-24 14:00:00 10.5 6 Este 20 Este 0 -- -- 58
2018-11-24 13:00:00 9.3 4 Este 11 Nordeste 0 -- -- 66
2018-11-24 12:00:00 8.7 7 Este 10 Este 0 -- -- 66
2018-11-24 11:00:00 8.1 2 Nordeste 11 Nordeste 0 -- -- 67
2018-11-24 10:00:00 6.4 6 Nordeste 11 Este 0 -- -- 72
2018-11-24 09:00:00 5.8 4 Nordeste 8 Sudeste 0 -- -- 74
2018-11-24 08:00:00 5.8 5 Nordeste 9 Nordeste 0 -- -- 72
2018-11-24 07:00:00 5.7 5 Norte 9 Norte 0 -- -- 70
2018-11-24 06:00:00 5.3 7 Nordeste 11 Nordeste 0 -- -- 73
2018-11-24 05:00:00 5.2 8 Nordeste 14 Nordeste 0 -- -- 73
2018-11-24 04:00:00 5.1 4 Nordeste 9 Nordeste 0 -- -- 73
2018-11-24 03:00:00 5.7 5 Norte 10 Nordeste 0 -- -- 68
2018-11-24 02:00:00 5.6 3 Nordeste 12 Nordeste 0 -- -- 68
2018-11-24 01:00:00 5.2 8 Nordeste 12 Nordeste 0 -- -- 69
2018-11-24 00:00:00 4.4 8 Nordeste 12 Norte 0 -- -- 73
2018-11-23 23:00:00 4.2 7 Nordeste 12 Nordeste 0 -- -- 75
2018-11-23 22:00:00 4.3 6 Nordeste 12 Nordeste 0 -- -- 77
2018-11-23 21:00:00 4.6 4 Norte 12 Norte 0 -- -- 78
2018-11-23 20:00:00 5.1 4 Norte 9 Norte 0 -- -- 76
2018-11-23 19:00:00 5.3 4 Norte 8 Oeste 0 -- -- 87
2018-11-23 18:00:00 5.5 6 Oeste 15 Norte 0 -- -- 90
2018-11-23 17:00:00 7.6 2 Sur 10 Nordeste 0 -- -- 69
2018-11-23 16:00:00 8.7 4 Sudeste 13 Este 0 -- -- 56
2018-11-23 15:00:00 9.6 3 Este 19 Sudeste 0 -- -- 49
2018-11-23 14:00:00 10.8 9 Sur 22 Sudeste 0 -- -- 49
2018-11-23 13:00:00 9.4 6 Sur 14 Sudeste 0 -- -- 54
2018-11-23 12:00:00 8.6 4 Este 12 Sudoeste 0 -- -- 58
2018-11-23 11:00:00 7.9 4 Este 10 Este 0 -- -- 62
2018-11-23 10:00:00 7.1 3 Sudeste 7 Este 0 -- -- 64
2018-11-23 09:00:00 5.9 0 Calma 10 Norte 0 -- -- 68
2018-11-23 08:00:00 5.4 2 Oeste 9 Norte 0 -- -- 69
2018-11-23 07:00:00 5.6 5 Norte 9 Norte 0 -- -- 70
2018-11-23 06:00:00 6.3 9 Noroeste 13 Noroeste 0 -- -- 65
2018-11-23 05:00:00 6.3 5 Nordeste 16 Oeste 0 -- -- 67
2018-11-23 04:00:00 6.1 5 Noroeste 13 Oeste 0 -- -- 68
2018-11-23 03:00:00 6.3 5 Nordeste 17 Norte 0 -- -- 69
2018-11-23 02:00:00 6.4 8 Este 19 Nordeste 0 -- -- 67
2018-11-23 01:00:00 6.4 8 Nordeste 35 Oeste 0 -- -- 67
2018-11-23 00:00:00 7.1 9 Nordeste 44 Oeste 0 -- -- 63
2018-11-22 23:00:00 7.6 20 Sudoeste 36 Sudoeste 0 -- -- 55
2018-11-22 22:00:00 6.7 8 Este 40 Oeste 0 -- -- 68
2018-11-22 21:00:00 8.6 32 Oeste 52 Oeste 0 -- -- 49
2018-11-22 20:00:00 6.4 7 Nordeste 30 Sur 0 -- -- 68
2018-11-22 19:00:00 7.6 10 Sur 40 Sudoeste 0 -- -- 55
2018-11-22 18:00:00 7.2 6 Noroeste 17 Sudoeste 0 -- -- 58
2018-11-22 17:00:00 7.9 4 Este 40 Oeste 0 -- -- 60
2018-11-22 16:00:00 10.4 8 Sudoeste 48 Oeste 0 -- -- 49
2018-11-22 15:00:00 10.9 38 Sudoeste 61 Sur 0 -- -- 40
2018-11-22 14:00:00 10.3 43 Oeste 75 Oeste 0 -- -- 37
2018-11-22 13:00:00 10.5 26 Sudoeste 50 Oeste 0 -- -- 40
2018-11-22 12:00:00 10.5 5 Sudeste 20 Sur 0 -- -- 52
2018-11-22 11:00:00 10 4 Norte 24 Sudeste 0 -- -- 54
2018-11-22 10:00:00 7.9 6 Este 19 Este 0 -- -- 62
2018-11-22 09:00:00 4.9 4 Nordeste 19 Nordeste 0 -- -- 73
2018-11-22 08:00:00 4.8 7 Nordeste 15 Nordeste 0 -- -- 70
2018-11-22 07:00:00 5.2 5 Nordeste 17 Este 0 -- -- 65
2018-11-22 06:00:00 6 4 Este 25 Oeste 0 -- -- 59
2018-11-22 05:00:00 6.2 8 Norte 36 Oeste 0 -- -- 59
2018-11-22 04:00:00 5.6 8 Norte 35 Oeste 0 -- -- 65
2018-11-22 03:00:00 7.6 15 Oeste 54 Sudoeste 0 -- -- 48
2018-11-22 02:00:00 7.7 31 Sudoeste 60 Oeste 0 -- -- 49
2018-11-22 01:00:00 6.8 14 Sudoeste 36 Oeste 0 -- -- 53
2018-11-22 00:00:00 5.8 10 Norte 23 Este 0 -- -- 67
2018-11-21 23:00:00 6.8 11 Sudeste 35 Sudoeste 0 -- -- 62
2018-11-21 22:00:00 7.9 27 Sudoeste 57 Oeste 0 -- -- 55
2018-11-21 21:00:00 7.6 23 Sudoeste 44 Sudoeste 0 -- -- 55
2018-11-21 20:00:00 6.6 6 Nordeste 34 Sudoeste 0 -- -- 66
2018-11-21 19:00:00 6.6 12 Oeste 38 Sudoeste 0 -- -- 61
2018-11-21 18:00:00 5.8 5 Nordeste 13 Nordeste 0 -- -- 75
2018-11-21 17:00:00 6.4 6 Nordeste 17 Este 0 -- -- 72
2018-11-21 16:00:00 6.6 8 Este 18 Este 0 -- -- 74
2018-11-21 15:00:00 9.2 5 Sudeste 14 Sur 0 -- -- 64
2018-11-21 14:00:00 8.3 6 Este 13 Este 0 -- -- 70
2018-11-21 13:00:00 7.2 0 Calma 10 Sudoeste 0 -- -- 74
2018-11-21 12:00:00 7 4 Sudeste 7 Este 0 -- -- 73
2018-11-21 11:00:00 6.8 3 Sudeste 6 Este 0 -- -- 76
2018-11-21 10:00:00 3.8 2 Oeste 4 Nordeste 0 -- -- 81
2018-11-21 09:00:00 3 3 Este 7 Nordeste 0 -- -- 83
2018-11-21 08:00:00 3.4 2 Este 9 Norte 0 -- -- 81
2018-11-21 07:00:00 2.9 0 Calma 9 Norte 0 -- -- 84
2018-11-21 06:00:00 3.1 4 Nordeste 11 Norte 0 -- -- 84
2018-11-21 05:00:00 2.9 4 Este 13 Oeste 0 -- -- 84
2018-11-21 04:00:00 3.4 2 Noroeste 10 Noroeste 0 -- -- 80
2018-11-21 03:00:00 2.8 3 Sudoeste 5 Norte 0 -- -- 86
2018-11-21 02:00:00 2.4 0 Calma 12 Nordeste 0 -- -- 89
2018-11-21 01:00:00 1.8 5 Nordeste 8 Nordeste 0 -- -- 95
2018-11-21 00:00:00 1.8 2 Norte 5 Sudoeste 0 -- -- 96
2018-11-20 23:00:00 1.7 0 Calma 5 Norte 0 -- -- 98
2018-11-20 22:00:00 1.6 2 Este 4 Sudeste 0 -- -- 98
2018-11-20 21:00:00 2.1 0 Calma 4 Oeste 0 -- -- 99
2018-11-20 20:00:00 2 0 Calma 4 Nordeste 0 -- -- 99
2018-11-20 19:00:00 1.9 0 Calma 4 Sudoeste 0 -- -- 99
2018-11-20 18:00:00 1.9 3 Norte 5 Oeste 0 -- -- 99
2018-11-20 17:00:00 1.7 3 Sudoeste 8 Este 0 -- -- 99
2018-11-20 16:00:00 1.9 0 Calma 14 Este 0 -- -- 99
2018-11-20 15:00:00 1.9 3 Este 9 Nordeste 0 -- -- 99
2018-11-20 14:00:00 1.7 3 Norte 24 Norte 0 -- -- 100
2018-11-20 13:00:00 1.3 10 Norte 22 Norte 0 -- -- 99
2018-11-20 12:00:00 1.7 4 Nordeste 20 Este 0.2 -- -- 99
2018-11-20 11:00:00 1.7 8 Este 21 Este 0.4 -- -- 99
2018-11-20 10:00:00 1.9 9 Este 24 Este 0.2 -- -- 99
2018-11-20 09:00:00 2.1 10 Este 21 Este 0.4 -- -- 99
2018-11-20 08:00:00 2.6 8 Nordeste 20 Nordeste 1.4 -- -- 99
2018-11-20 07:00:00 3.2 4 Norte 9 Noroeste 0.8 -- -- 99
2018-11-20 06:00:00 3.4 0 Calma 8 Nordeste 1.2 -- -- 99
2018-11-20 05:00:00 3.3 4 Nordeste 20 Nordeste 0.2 -- -- 99
2018-11-20 04:00:00 3.6 0 Calma 24 Nordeste 1.6 -- -- 99
2018-11-20 03:00:00 4 10 Este 22 Este 0 -- -- 99
2018-11-20 02:00:00 4.6 4 Nordeste 19 Nordeste 0.2 -- -- 98
2018-11-20 01:00:00 5 4 Nordeste 14 Norte 0.8 -- -- 98
2018-11-20 00:00:00 5.3 7 Nordeste 12 Nordeste 4.6 -- -- 98
2018-11-19 23:00:00 5.8 2 Sudoeste 9 Sudeste 1.4 -- -- 98
2018-11-19 22:00:00 6.2 0 Calma 14 Este 3.2 -- -- 98
2018-11-19 21:00:00 6.3 6 Nordeste 15 Nordeste 0.4 -- -- 97
2018-11-19 20:00:00 6.7 0 Calma 9 Sur 0 -- -- 97
2018-11-19 19:00:00 6.9 3 Sudoeste 12 Noroeste 0 -- -- 95
2018-11-19 18:00:00 7.4 3 Sudoeste 6 Sur 0 -- -- 95
2018-11-19 17:00:00 8.1 3 Sur 8 Sudoeste 0 -- -- 91
2018-11-19 16:00:00 9.5 4 Sudoeste 13 Oeste 0 -- -- 81
2018-11-19 15:00:00 10 4 Sur 8 Sur 0 -- -- 72
2018-11-19 14:00:00 10 0 Calma 10 Sur 0 -- -- 70
2018-11-19 13:00:00 12.1 6 Sur 13 Sudoeste 0 -- -- 68
2018-11-19 12:00:00 11.6 3 Sudeste 9 Sudeste 0 -- -- 66
2018-11-19 11:00:00 9.8 3 Nordeste 10 Este 0 -- -- 71
2018-11-19 10:00:00 10 3 Sur 10 Este 0 -- -- 70
2018-11-19 09:00:00 7 8 Nordeste 10 Nordeste 0 -- -- 82
2018-11-19 08:00:00 6.6 7 Norte 13 Nordeste 0 -- -- 81
2018-11-19 07:00:00 6.7 7 Nordeste 12 Nordeste 0 -- -- 83
2018-11-19 06:00:00 6.9 5 Nordeste 15 Nordeste 0 -- -- 82
2018-11-19 05:00:00 7.2 7 Este 18 Nordeste 0 -- -- 80
2018-11-19 04:00:00 8.3 8 Sudeste 39 Sur 0 -- -- 72
2018-11-19 03:00:00 8.1 13 Sudeste 39 Sur 0 -- -- 74
2018-11-19 02:00:00 7.9 14 Sur 42 Sur 0 -- -- 77
2018-11-19 01:00:00 7.9 22 Sur 43 Sur 0 -- -- 79
2018-11-19 00:00:00 7.9 15 Sur 41 Sur 0.8 -- -- 79
2018-11-18 23:00:00 7.8 22 Sur 49 Sudoeste 1.8 -- -- 81
2018-11-18 22:00:00 8.2 17 Sudeste 44 Sur 0 -- -- 83
2018-11-18 21:00:00 7.8 11 Este 23 Sudeste 0 -- -- 85
2018-11-18 20:00:00 8 5 Nordeste 16 Nordeste 0.4 -- -- 86
2018-11-18 19:00:00 7.8 6 Sudeste 19 Sur 0.2 -- -- 90
2018-11-18 18:00:00 8.5 14 Oeste 29 Noroeste 1.4 -- -- 76
2018-11-18 17:00:00 8.6 3 Sudoeste 9 Nordeste 0 -- -- 93
2018-11-18 16:00:00 9.5 0 Calma 6 Sur 0 -- -- 88
2018-11-18 15:00:00 9.5 2 Sur 8 Sudoeste 0 -- -- 86
2018-11-18 14:00:00 12.6 5 Sur 10 Sur 0 -- -- 71
2018-11-18 13:00:00 11.4 3 Sudeste 10 Sur 0 -- -- 78
2018-11-18 12:00:00 12.2 5 Sur 10 Sur 0 -- -- 73
2018-11-18 11:00:00 11.4 4 Sur 11 Sudoeste 0 -- -- 69
2018-11-18 10:00:00 8.7 9 Sudoeste 12 Sudoeste 0 -- -- 77
2018-11-18 09:00:00 9.8 6 Oeste 12 Noroeste 0 -- -- 68
2018-11-18 08:00:00 9.4 0 Calma 7 Norte 0 -- -- 67
2018-11-18 07:00:00 9.6 0 Calma 8 Norte 0 -- -- 64
2018-11-18 06:00:00 9.9 4 Nordeste 9 Norte 0 -- -- 64
2018-11-18 05:00:00 10.6 5 Oeste 14 Noroeste 0 -- -- 61
2018-11-18 04:00:00 10.4 5 Nordeste 10 Norte 0 -- -- 62
2018-11-18 03:00:00 10.7 6 Norte 12 Norte 0 -- -- 63
2018-11-18 02:00:00 10.4 5 Norte 9 Norte 0 -- -- 69
2018-11-18 01:00:00 10.9 3 Norte 9 Norte 0 -- -- 67
2018-11-18 00:00:00 10.8 5 Norte 11 Este 0 -- -- 69
2018-11-17 23:00:00 10.9 6 Nordeste 12 Nordeste 0 -- -- 71
2018-11-17 22:00:00 10.8 3 Norte 17 Este 0 -- -- 73
2018-11-17 21:00:00 11.2 5 Nordeste 14 Nordeste 0 -- -- 69
2018-11-17 20:00:00 11.9 5 Norte 9 Norte 0 -- -- 67
2018-11-17 19:00:00 11.7 3 Norte 6 Norte 0 -- -- 70
2018-11-17 18:00:00 12.5 2 Nordeste 5 Nordeste 0 -- -- 68
2018-11-17 17:00:00 14.1 0 Calma 15 Este 0 -- -- 62
2018-11-17 16:00:00 14.5 9 Este 18 Este 0 -- -- 62
2018-11-17 15:00:00 15.1 6 Este 15 Este 0 -- -- 60
2018-11-17 14:00:00 14.5 9 Este 17 Este 0 -- -- 61
2018-11-17 13:00:00 13.8 6 Este 18 Este 0 -- -- 63
2018-11-17 12:00:00 13.5 6 Este 14 Este 0 -- -- 66
2018-11-17 11:00:00 12.4 7 Este 15 Este 0 -- -- 68
2018-11-17 10:00:00 11.4 7 Este 15 Nordeste 0 -- -- 74
2018-11-17 09:00:00 10.4 6 Nordeste 18 Nordeste 0 -- -- 75
2018-11-17 08:00:00 9.9 9 Nordeste 18 Nordeste 0 -- -- 75
2018-11-17 07:00:00 9.7 6 Nordeste 20 Nordeste 0 -- -- 77
2018-11-17 06:00:00 10 11 Nordeste 18 Este 0 -- -- 77
2018-11-17 05:00:00 10.8 11 Nordeste 15 Nordeste 0 -- -- 71
2018-11-17 04:00:00 10.9 8 Norte 15 Nordeste 0 -- -- 70
2018-11-17 03:00:00 10.8 9 Nordeste 14 Norte 0 -- -- 73
2018-11-17 02:00:00 11 6 Nordeste 13 Nordeste 0 -- -- 73
2018-11-17 01:00:00 11 9 Nordeste 15 Nordeste 0 -- -- 73
2018-11-17 00:00:00 11.5 5 Nordeste 15 Este 0 -- -- 71
2018-11-16 23:00:00 11.7 4 Nordeste 18 Sudeste 0 -- -- 70
2018-11-16 22:00:00 11.6 11 Nordeste 17 Nordeste 0 -- -- 72
2018-11-16 21:00:00 11.5 4 Nordeste 17 Sur 0 -- -- 74
2018-11-16 20:00:00 12.1 5 Nordeste 24 Sudeste 0 -- -- 69
2018-11-16 19:00:00 12.7 9 Sudoeste 23 Sudoeste 0 -- -- 67
2018-11-16 18:00:00 13.5 6 Sudeste 23 Sur 0 -- -- 63
2018-11-16 17:00:00 15 6 Sur 19 Sudeste 0 -- -- 59
2018-11-16 16:00:00 16.3 6 Sudeste 18 Sudeste 0 -- -- 59
2018-11-16 15:00:00 15.3 8 Este 15 Este 0 -- -- 62
2018-11-16 14:00:00 15.3 6 Este 22 Sudeste 0 -- -- 63
2018-11-16 13:00:00 15 8 Este 20 Nordeste 0 -- -- 62
2018-11-16 12:00:00 13.5 8 Este 19 Este 0 -- -- 65
2018-11-16 11:00:00 13.2 8 Este 14 Nordeste 0 -- -- 67
2018-11-16 10:00:00 12.8 3 Sudeste 13 Este 0 -- -- 66
2018-11-16 09:00:00 10.9 4 Nordeste 12 Este 0 -- -- 70
2018-11-16 08:00:00 10.5 6 Nordeste 13 Este 0 -- -- 72
2018-11-16 07:00:00 10.5 5 Nordeste 11 Norte 0 -- -- 70
2018-11-16 06:00:00 10.4 5 Norte 13 Nordeste 0 -- -- 72
2018-11-16 05:00:00 10.5 8 Nordeste 11 Este 0 -- -- 74
2018-11-16 04:00:00 10.3 5 Nordeste 9 Nordeste 0 -- -- 74
2018-11-16 03:00:00 10.7 5 Nordeste 12 Nordeste 0 -- -- 73
2018-11-16 02:00:00 10.2 7 Nordeste 12 Nordeste 0 -- -- 77
2018-11-16 01:00:00 10.8 9 Nordeste 18 Nordeste 0 -- -- 76
2018-11-16 00:00:00 10.5 0 Calma 10 Nordeste 0 -- -- 77
2018-11-15 23:00:00 11.3 3 Norte 9 Norte 0 -- -- 72
2018-11-15 22:00:00 11.2 3 Norte 8 Norte 0 -- -- 74
2018-11-15 21:00:00 11.8 0 Calma 4 Norte 0 -- -- 72
2018-11-15 20:00:00 12 3 Norte 8 Norte 0 -- -- 72
2018-11-15 19:00:00 12 2 Norte 5 Noroeste 0 -- -- 69
2018-11-15 18:00:00 12.1 4 Norte 6 Norte 0 -- -- 69
2018-11-15 17:00:00 12.7 0 Calma 13 Nordeste 0 -- -- 66
2018-11-15 16:00:00 13.9 5 Nordeste 13 Nordeste 0 -- -- 62
2018-11-15 15:00:00 14.9 3 Sudeste 9 Sudoeste 0 -- -- 64
2018-11-15 14:00:00 14.8 4 Sudoeste 9 Sur 0 -- -- 62
2018-11-15 13:00:00 14.4 3 Este 11 Este 0 -- -- 63
2018-11-15 12:00:00 13.8 3 Nordeste 10 Nordeste 0 -- -- 64
2018-11-15 11:00:00 13.1 8 Este 14 Este 0 -- -- 68
2018-11-15 10:00:00 12.6 9 Este 14 Este 0 -- -- 70
2018-11-15 09:00:00 11 8 Nordeste 12 Norte 0 -- -- 74
2018-11-15 08:00:00 10.6 9 Nordeste 15 Nordeste 0 -- -- 75
2018-11-15 07:00:00 10.5 7 Norte 14 Nordeste 0 -- -- 73
2018-11-15 06:00:00 10.8 8 Nordeste 14 Nordeste 0 -- -- 74
2018-11-15 05:00:00 10.8 8 Nordeste 15 Nordeste 0 -- -- 74
2018-11-15 04:00:00 10.8 12 Nordeste 15 Nordeste 0 -- -- 75
2018-11-15 03:00:00 10.7 10 Nordeste 17 Nordeste 0 -- -- 75
2018-11-15 02:00:00 11 5 Nordeste 15 Nordeste 0 -- -- 74
2018-11-15 01:00:00 11.4 4 Este 17 Nordeste 0 -- -- 69
2018-11-15 00:00:00 11.1 6 Nordeste 19 Sur 0 -- -- 68
2018-11-14 23:00:00 11.8 6 Este 21 Sur 0 -- -- 64
2018-11-14 22:00:00 11.7 8 Este 15 Este 0 -- -- 65
2018-11-14 21:00:00 11.9 7 Nordeste 16 Nordeste 0 -- -- 64
2018-11-14 20:00:00 12.7 4 Este 14 Nordeste 0 -- -- 60
2018-11-14 19:00:00 13.7 7 Este 21 Nordeste 0 -- -- 58
2018-11-14 18:00:00 14.6 4 Este 12 Nordeste 0 -- -- 58
2018-11-14 17:00:00 16.1 5 Nordeste 7 Nordeste 0 -- -- 54
2018-11-14 16:00:00 18.8 3 Sudeste 9 Este 0 -- -- 52
2018-11-14 15:00:00 17.8 6 Este 11 Sudeste 0 -- -- 47
2018-11-14 14:00:00 17.2 4 Este 17 Este 0 -- -- 49
2018-11-14 13:00:00 16.9 8 Este 24 Sudeste 0 -- -- 52
2018-11-14 12:00:00 16.6 6 Sudeste 22 Sudeste 0 -- -- 48
2018-11-14 11:00:00 15.2 9 Este 21 Sudeste 0 -- -- 49
2018-11-14 10:00:00 14.2 2 Sudoeste 10 Este 0 -- -- 50
2018-11-14 09:00:00 11.6 8 Nordeste 14 Nordeste 0 -- -- 59
2018-11-14 08:00:00 11.5 7 Nordeste 13 Norte 0 -- -- 57
2018-11-14 07:00:00 11.3 7 Nordeste 13 Nordeste 0 -- -- 60
2018-11-14 06:00:00 11.3 9 Nordeste 14 Nordeste 0 -- -- 60
2018-11-14 05:00:00 11.1 8 Nordeste 13 Nordeste 0 -- -- 61
2018-11-14 04:00:00 10.8 6 Nordeste 13 Nordeste 0 -- -- 63
2018-11-14 03:00:00 11.1 6 Norte 10 Norte 0 -- -- 61
2018-11-14 02:00:00 11.2 4 Norte 10 Norte 0 -- -- 62
2018-11-14 01:00:00 10.8 2 Norte 15 Nordeste 0 -- -- 66
2018-11-14 00:00:00 10.9 8 Nordeste 14 Norte 0 -- -- 66
2018-11-13 23:00:00 10.8 6 Norte 12 Nordeste 0 -- -- 68
2018-11-13 22:00:00 9.8 4 Nordeste 12 Norte 0 -- -- 76
2018-11-13 21:00:00 9.9 7 Norte 12 Norte 0 -- -- 77
2018-11-13 20:00:00 10.5 6 Norte 10 Norte 0 -- -- 75
2018-11-13 19:00:00 10.3 3 Nordeste 7 Norte 0 -- -- 74
2018-11-13 18:00:00 9.9 0 Calma 6 Sudoeste 0 -- -- 82
2018-11-13 17:00:00 11 0 Calma 6 Oeste 0 -- -- 79
2018-11-13 16:00:00 10.8 0 Calma 8 Este 0 -- -- 78
2018-11-13 15:00:00 10.5 4 Nordeste 8 Sur 0 -- -- 75
2018-11-13 14:00:00 11.6 4 Sudoeste 13 Sudoeste 0 -- -- 76
2018-11-13 13:00:00 11.2 4 Sur 10 Sudeste 0 -- -- 76
2018-11-13 12:00:00 9.5 0 Calma 6 Oeste 0 -- -- 79
2018-11-13 11:00:00 8.3 3 Sudoeste 15 Nordeste 0 -- -- 86
2018-11-13 10:00:00 5.9 3 Este 12 Este 0 -- -- 95
2018-11-13 09:00:00 4.8 6 Este 12 Este 0 -- -- 92
2018-11-13 08:00:00 4.9 0 Calma 10 Este 0 -- -- 92
2018-11-13 07:00:00 5.3 4 Norte 10 Nordeste 0 -- -- 85
2018-11-13 06:00:00 5.3 5 Nordeste 9 Nordeste 0 -- -- 85
2018-11-13 05:00:00 5.4 2 Nordeste 6 Norte 0 -- -- 92
2018-11-13 04:00:00 5.5 3 Norte 5 Norte 0 -- -- 92
2018-11-13 03:00:00 5.9 2 Nordeste 7 Norte 0 -- -- 91
2018-11-13 02:00:00 5.6 3 Norte 8 Norte 0 -- -- 89
2018-11-13 01:00:00 5.5 2 Oeste 4 Sudoeste 0 -- -- 94
2018-11-13 00:00:00 5.6 0 Calma 6 Oeste 0 -- -- 94
2018-11-12 23:00:00 5.6 4 Oeste 8 Noroeste 0 -- -- 96
2018-11-12 22:00:00 6 4 Oeste 9 Noroeste 0 -- -- 93
2018-11-12 21:00:00 6.1 2 Noroeste 4 Oeste 0 -- -- 96
2018-11-12 20:00:00 6.6 0 Calma 5 Sur 0 -- -- 96
2018-11-12 19:00:00 6.7 0 Calma 4 Sur 0 -- -- 96
2018-11-12 18:00:00 7.1 0 Calma 6 Sudoeste 0 -- -- 93
2018-11-12 17:00:00 7.5 3 Sudoeste 5 Sudoeste 0 -- -- 92
2018-11-12 16:00:00 7.9 2 Sur 6 Sudoeste 0 -- -- 92
2018-11-12 15:00:00 7.7 4 Sudoeste 12 Este 0 -- -- 92
2018-11-12 14:00:00 7.3 8 Nordeste 14 Nordeste 0 -- -- 93
2018-11-12 13:00:00 7.5 0 Calma 5 Sudoeste 0 -- -- 95
2018-11-12 12:00:00 7.1 2 Nordeste 4 Este 0 -- -- 98
2018-11-12 11:00:00 6.6 0 Calma 4 Nordeste 0 -- -- 99
2018-11-12 10:00:00 6 0 Calma 4 Norte 0.4 -- -- 99
2018-11-12 09:00:00 5.7 0 Calma 4 Oeste 0.2 -- -- 99
2018-11-12 08:00:00 5.7 2 Sudoeste 6 Oeste 0.2 -- -- 99
2018-11-12 07:00:00 6 0 Calma 4 Oeste 0.2 -- -- 99
2018-11-12 06:00:00 6.1 2 Sudoeste 7 Sudoeste 0.8 -- -- 99
2018-11-12 05:00:00 6.2 4 Sudoeste 8 Nordeste 0.8 -- -- 99
2018-11-12 04:00:00 6.3 4 Nordeste 6 Este 0.6 -- -- 99
2018-11-12 03:00:00 6.6 3 Sudoeste 6 Sudoeste 0.4 -- -- 98
2018-11-12 02:00:00 7 0 Calma 13 Nordeste 0.2 -- -- 99
2018-11-12 01:00:00 7.1 0 Calma 4 Sur 0.6 -- -- 98
2018-11-12 00:00:00 7 2 Este 9 Este 0.8 -- -- 98
2018-11-11 23:00:00 7.1 4 Este 7 Este 0.6 -- -- 98
2018-11-11 22:00:00 7.3 3 Nordeste 11 Este 1 -- -- 98
2018-11-11 21:00:00 7.6 6 Este 10 Este 1 -- -- 98
2018-11-11 20:00:00 8.1 6 Este 10 Nordeste 0.4 -- -- 98
2018-11-11 19:00:00 8.1 4 Nordeste 10 Sudoeste 2.6 -- -- 97
2018-11-11 18:00:00 8.7 3 Sudeste 7 Nordeste 3 -- -- 97
2018-11-11 17:00:00 9 3 Este 6 Sudeste 3.2 -- -- 96
2018-11-11 16:00:00 9.2 2 Nordeste 5 Sudeste 3.6 -- -- 95
2018-11-11 15:00:00 10 0 Calma 9 Nordeste 2.2 -- -- 94
2018-11-11 14:00:00 10.7 3 Sudeste 15 Sudeste 0.8 -- -- 86
2018-11-11 13:00:00 13.3 5 Este 21 Sur 0 -- -- 69
2018-11-11 12:00:00 14.3 13 Este 23 Nordeste 0 -- -- 60
2018-11-11 11:00:00 13.5 14 Este 27 Este 0 -- -- 60
2018-11-11 10:00:00 12 12 Nordeste 29 Este 0 -- -- 65
2018-11-11 09:00:00 11.3 15 Este 29 Este 0 -- -- 68
2018-11-11 08:00:00 11.4 12 Nordeste 24 Nordeste 0 -- -- 65
2018-11-11 07:00:00 10.6 14 Nordeste 28 Este 0 -- -- 68
2018-11-11 06:00:00 12.4 13 Nordeste 58 Oeste 0 -- -- 61
2018-11-11 05:00:00 12.2 15 Oeste 36 Noroeste 0 -- -- 56
2018-11-11 04:00:00 11 8 Este 35 Noroeste 0 -- -- 59
2018-11-11 03:00:00 10.1 7 Norte 44 Sudoeste 0 -- -- 69
2018-11-11 02:00:00 11.9 24 Oeste 50 Oeste 0 -- -- 58
2018-11-11 01:00:00 11.4 6 Nordeste 48 Oeste 0 -- -- 56
2018-11-11 00:00:00 10.7 3 Nordeste 17 Oeste 0 -- -- 55
2018-11-10 23:00:00 10.3 8 Nordeste 20 Norte 0 -- -- 58
2018-11-10 22:00:00 9.8 8 Este 19 Nordeste 0 -- -- 61
2018-11-10 21:00:00 9.4 9 Nordeste 14 Nordeste 0 -- -- 61
2018-11-10 20:00:00 9.5 6 Norte 12 Sudoeste 0 -- -- 75
2018-11-10 19:00:00 9 3 Noroeste 8 Noroeste 0 -- -- 91
2018-11-10 18:00:00 9.3 3 Oeste 11 Oeste 0 -- -- 94
2018-11-10 17:00:00 10.1 0 Calma 8 Sur 0.2 -- -- 92
2018-11-10 16:00:00 10.7 6 Sudoeste 11 Sudoeste 0 -- -- 88
2018-11-10 15:00:00 13 4 Sur 18 Sudoeste 0 -- -- 80
2018-11-10 14:00:00 14.2 5 Sudeste 17 Sudoeste 0 -- -- 76
2018-11-10 13:00:00 11.8 5 Sudoeste 16 Sur 0 -- -- 87
2018-11-10 12:00:00 12.8 4 Sudeste 14 Sur 0 -- -- 84
2018-11-10 11:00:00 11.7 3 Sudeste 9 Sur 0 -- -- 85
2018-11-10 10:00:00 11.4 4 Sudoeste 13 Oeste 0 -- -- 90
2018-11-10 09:00:00 9.7 6 Noroeste 13 Norte 0.8 -- -- 93
2018-11-10 08:00:00 9.2 4 Oeste 11 Nordeste 0 -- -- 93
2018-11-10 07:00:00 8.4 5 Norte 8 Sudoeste 0.2 -- -- 96
2018-11-10 06:00:00 9 3 Oeste 13 Nordeste 0.2 -- -- 93
2018-11-10 05:00:00 10.1 6 Nordeste 19 Nordeste 0 -- -- 83
2018-11-10 04:00:00 10.5 8 Nordeste 19 Este 0 -- -- 80
2018-11-10 03:00:00 11.4 8 Nordeste 18 Nordeste 0 -- -- 72
2018-11-10 02:00:00 12.5 17 Este 34 Este 0 -- -- 64
2018-11-10 01:00:00 13.8 25 Sudoeste 46 Sur 0 -- -- 56
2018-11-10 00:00:00 13.5 10 Oeste 25 Sudoeste 0 -- -- 56